Time;durP1;ratioP1;P1;durP2;ratioP2;P2;SDS_P1;SDS_P2;PMS_P1;PMS_P2;Temp;Humidity;BMP_temperature;BMP_pressure;BME280_temperature;BME280_humidity;BME280_pressure;Samples;Min_cycle;Max_cycle;Signal;HPM_P1;HPM_P2
2022/05/04 00:00:16;;;;;;;;;;;;;;;18.76;59.92;99821.97;2065786;28;19924;-42
2022/05/04 00:01:16;;;;;;;;;;;;;;;18.74;59.92;99819.38;2064479;28;19913;-42
2022/05/04 00:02:16;;;;;;;;;;;;;;;18.74;60.07;99813.91;2065141;28;19948;-42
2022/05/04 00:03:17;;;;;;;;;;;;;;;18.75;60.03;99822.97;2065178;28;20314;-42
2022/05/04 00:04:17;;;;;;;;;;;;;;;18.75;60.09;99814.75;2066011;28;19924;-42
2022/05/04 00:05:18;;;;;;;;;;;;;;;18.74;60.02;99816.66;2062805;28;20651;-41
2022/05/04 00:06:18;;;;;;;;;;;;;;;18.75;60.20;99820.22;2067411;28;19964;-42
2022/05/04 00:07:18;;;;;;;;;;;;;;;18.75;60.12;99814.75;2065126;28;19922;-42
2022/05/04 00:08:19;;;;;;;;;;;;;;;18.75;60.12;99823.81;2067430;28;20256;-42
2022/05/04 00:09:19;;;;;;;;;;;;;;;18.75;60.12;99820.22;2066628;28;19917;-40
2022/05/04 00:10:19;;;;;;;;;;;;;;;18.75;60.16;99820.22;2062991;28;19924;-42
2022/05/04 00:11:19;;;;;;;;;;;;;;;18.75;60.20;99815.63;2064998;28;20783;-41
2022/05/04 00:12:20;;;;;;;;;;;;;;;18.75;60.17;99820.22;2065854;28;20437;-42
2022/05/04 00:13:20;;;;;;;;;;;;;;;18.74;60.05;99813.91;2065763;28;20048;-42
2022/05/04 00:14:23;;;;;;;;;;;;;;;18.75;60.11;99814.75;2066854;28;19913;-42
2022/05/04 00:15:23;;;;;;;;;;;;;;;18.74;60.02;99813.91;2065546;28;20276;-43
2022/05/04 00:16:24;;;;;;;;;;;;;;;18.73;60.10;99820.38;2067795;28;19917;-41
2022/05/04 00:17:24;;;;;;;;;;;;;;;18.74;60.01;99811.19;2067520;28;20008;-43
2022/05/04 00:18:24;;;;;;;;;;;;;;;18.73;60.06;99812.19;2067345;28;19960;-42
2022/05/04 00:19:24;;;;;;;;;;;;;;;18.73;60.08;99820.38;2068036;28;19909;-42
2022/05/04 00:20:25;;;;;;;;;;;;;;;18.72;60.08;99813.19;2064970;28;20257;-42
2022/05/04 00:21:25;;;;;;;;;;;;;;;18.73;60.07;99823.09;2067934;28;19921;-41
2022/05/04 00:22:26;;;;;;;;;;;;;;;18.73;60.02;99817.63;2066645;28;20240;-41
2022/05/04 00:23:26;;;;;;;;;;;;;;;18.72;60.23;99818.66;2064326;28;19918;-43
2022/05/04 00:24:26;;;;;;;;;;;;;;;18.73;60.12;99823.09;2066506;28;20027;-42
2022/05/04 00:25:27;;;;;;;;;;;;;;;18.72;60.19;99821.41;2061371;28;21069;-42
2022/05/04 00:26:27;;;;;;;;;;;;;;;18.73;60.12;99822.25;2067695;28;19917;-43
2022/05/04 00:27:27;;;;;;;;;;;;;;;18.72;60.11;99826.00;2062859;28;19917;-41
2022/05/04 00:28:27;;;;;;;;;;;;;;;18.72;60.16;99815.09;2066317;28;20045;-42
2022/05/04 00:29:28;;;;;;;;;;;;;;;18.71;60.17;99814.19;2065173;28;20578;-43
2022/05/04 00:30:28;;;;;;;;;;;;;;;18.73;60.26;99817.63;2065405;28;20008;-42
2022/05/04 00:31:29;;;;;;;;;;;;;;;18.72;60.16;99815.09;2063183;28;19925;-42
2022/05/04 00:32:29;;;;;;;;;;;;;;;18.72;60.16;99812.34;2065129;28;19921;-42
2022/05/04 00:33:30;;;;;;;;;;;;;;;18.72;60.21;99810.47;2064502;28;20708;-43
2022/05/04 00:34:30;;;;;;;;;;;;;;;18.72;60.19;99809.63;2063329;28;19917;-42
2022/05/04 00:35:31;;;;;;;;;;;;;;;18.72;60.17;99815.09;2062960;28;19921;-42
2022/05/04 00:36:31;;;;;;;;;;;;;;;18.72;60.16;99815.94;2063632;28;19956;-42
2022/05/04 00:37:32;;;;;;;;;;;;;;;18.71;60.20;99816.94;2066044;28;19992;-42
2022/05/04 00:38:32;;;;;;;;;;;;;;;18.72;60.20;99821.41;2064095;28;21253;-41
2022/05/04 00:39:33;;;;;;;;;;;;;;;18.72;60.14;99810.47;2067090;28;20601;-43
2022/05/04 00:40:33;;;;;;;;;;;;;;;18.72;60.24;99813.19;2065455;28;20128;-42
2022/05/04 00:41:33;;;;;;;;;;;;;;;18.72;60.25;99815.94;2067584;28;19939;-42
2022/05/04 00:42:34;;;;;;;;;;;;;;;18.73;60.10;99811.31;2065183;28;19941;-42
2022/05/04 00:43:34;;;;;;;;;;;;;;;18.72;60.11;99815.94;2064496;28;20000;-41
2022/05/04 00:44:34;;;;;;;;;;;;;;;18.72;60.18;99807.75;2064627;28;20393;-41
2022/05/04 00:45:35;;;;;;;;;;;;;;;18.71;60.26;99808.72;2068559;28;19921;-42
2022/05/04 00:46:35;;;;;;;;;;;;;;;18.72;60.18;99809.63;2065182;28;19917;-41
2022/05/04 00:47:35;;;;;;;;;;;;;;;18.72;60.18;99809.63;2064431;28;19939;-42
2022/05/04 00:48:36;;;;;;;;;;;;;;;18.71;60.11;99808.72;2067115;28;20356;-42
2022/05/04 00:49:36;;;;;;;;;;;;;;;18.71;60.21;99811.47;2063533;28;19949;-41
2022/05/04 00:50:37;;;;;;;;;;;;;;;18.69;60.12;99805.31;2062770;28;20382;-41
2022/05/04 00:51:37;;;;;;;;;;;;;;;18.71;60.27;99808.72;2061683;28;20263;-43
2022/05/04 00:52:41;;;;;;;;;;;;;;;18.70;60.27;99807.03;2067667;28;20366;-42
2022/05/04 00:53:42;;;;;;;;;;;;;;;18.70;60.33;99807.03;2064397;28;20564;-41
2022/05/04 00:54:43;;;;;;;;;;;;;;;18.69;60.18;99802.59;2067280;28;19917;-41
2022/05/04 00:55:44;;;;;;;;;;;;;;;18.70;60.34;99807.03;2066335;28;19921;-42
2022/05/04 00:56:44;;;;;;;;;;;;;;;18.69;60.26;99805.31;2064309;28;19926;-43
2022/05/04 00:59:04;;;;;;;;;;;;;;;18.69;60.18;99797.13;2064834;28;19917;-41
2022/05/04 01:00:04;;;;;;;;;;;;;;;18.69;60.27;99804.44;2066995;28;19917;-42
2022/05/04 01:01:05;;;;;;;;;;;;;;;18.69;60.30;99799.88;2063866;28;20418;-41
2022/05/04 01:02:05;;;;;;;;;;;;;;;18.69;60.27;99805.31;2063165;28;19920;-41
2022/05/04 01:03:06;;;;;;;;;;;;;;;18.69;60.27;99804.44;2066311;28;20291;-42
2022/05/04 01:04:06;;;;;;;;;;;;;;;18.68;60.28;99809.06;2064902;28;20137;-42
2022/05/04 01:05:10;;;;;;;;;;;;;;;18.69;60.40;99809.91;2066478;28;20453;-42
2022/05/04 01:06:12;;;;;;;;;;;;;;;18.69;60.39;99805.31;2067113;28;20375;-44
2022/05/04 01:07:12;;;;;;;;;;;;;;;18.70;60.34;99807.03;2063832;28;19923;-41
2022/05/04 01:08:12;;;;;;;;;;;;;;;18.70;60.26;99811.63;2066939;28;19925;-43
2022/05/04 01:09:13;;;;;;;;;;;;;;;18.69;60.28;99805.31;2064902;28;19921;-41
2022/05/04 01:10:14;;;;;;;;;;;;;;;18.70;60.37;99812.50;2065703;28;19917;-42
2022/05/04 01:11:15;;;;;;;;;;;;;;;18.70;60.27;99809.75;2066469;28;19917;-42
2022/05/04 01:12:15;;;;;;;;;;;;;;;18.70;60.18;99811.63;2058894;28;19979;-42
2022/05/04 01:13:20;;;;;;;;;;;;;;;18.70;60.22;99815.22;2064730;28;19967;-41
2022/05/04 01:14:20;;;;;;;;;;;;;;;18.70;60.28;99812.50;2063018;28;19928;-43
2022/05/04 01:15:21;;;;;;;;;;;;;;;18.70;60.29;99817.94;2063017;28;20741;-42
2022/05/04 01:16:22;;;;;;;;;;;;;;;18.69;60.31;99816.25;2064511;28;20279;-42
2022/05/04 01:17:22;;;;;;;;;;;;;;;18.69;60.37;99807.19;2062786;28;20513;-42
2022/05/04 01:18:22;;;;;;;;;;;;;;;18.68;60.30;99814.50;2066968;28;20425;-41
2022/05/04 01:19:23;;;;;;;;;;;;;;;18.69;60.32;99816.25;2065238;28;19917;-41
2022/05/04 01:20:24;;;;;;;;;;;;;;;18.69;60.37;99815.38;2066239;28;19924;-42
2022/05/04 01:21:25;;;;;;;;;;;;;;;18.69;60.34;99815.38;2066691;28;20378;-41
2022/05/04 01:22:25;;;;;;;;;;;;;;;18.68;60.33;99814.50;2065111;28;19928;-42
2022/05/04 01:23:26;;;;;;;;;;;;;;;18.68;60.32;99819.13;2065244;28;20514;-42
2022/05/04 01:24:26;;;;;;;;;;;;;;;18.68;60.41;99814.50;2067641;28;19920;-42
2022/05/04 01:25:27;;;;;;;;;;;;;;;18.68;60.33;99814.50;2065717;28;19932;-42
2022/05/04 01:26:27;;;;;;;;;;;;;;;18.67;60.38;99812.81;2065232;28;19945;-42
2022/05/04 01:27:27;;;;;;;;;;;;;;;18.68;60.33;99817.25;2066595;28;19955;-43
2022/05/04 01:28:28;;;;;;;;;;;;;;;18.68;60.38;99821.84;2067600;28;20642;-41
2022/05/04 01:29:28;;;;;;;;;;;;;;;18.68;60.31;99816.38;2067090;28;19917;-44
2022/05/04 01:30:31;;;;;;;;;;;;;;;18.67;60.44;99811.91;2065566;28;19917;-42
2022/05/04 01:31:31;;;;;;;;;;;;;;;18.67;60.46;99811.91;2062765;28;19917;-42
2022/05/04 01:32:32;;;;;;;;;;;;;;;18.67;60.38;99821.00;2063635;28;20435;-41
2022/05/04 01:33:32;;;;;;;;;;;;;;;18.68;60.29;99814.50;2066352;28;20042;-41
2022/05/04 01:34:33;;;;;;;;;;;;;;;18.68;60.31;99810.94;2065193;28;19921;-42
2022/05/04 01:35:33;;;;;;;;;;;;;;;18.68;60.40;99808.19;2065576;28;19933;-42
2022/05/04 01:36:33;;;;;;;;;;;;;;;18.66;60.52;99813.81;2061483;28;20196;-42
2022/05/04 01:37:34;;;;;;;;;;;;;;;18.68;60.36;99808.19;2062132;28;19927;-44
2022/05/04 01:38:35;;;;;;;;;;;;;;;18.68;60.40;99811.78;2062286;28;20031;-42
2022/05/04 01:39:36;;;;;;;;;;;;;;;18.68;60.28;99814.50;2064939;28;19949;-41
2022/05/04 01:40:36;;;;;;;;;;;;;;;18.67;60.38;99820.13;2061299;28;20286;-41
2022/05/04 01:42:55;;;;;;;;;;;;;;;18.67;60.41;99812.81;2065143;28;20061;-43
2022/05/04 01:43:55;;;;;;;;;;;;;;;18.67;60.39;99818.28;2061454;28;20713;-42
2022/05/04 01:44:56;;;;;;;;;;;;;;;18.68;60.44;99816.38;2067074;28;20382;-42
2022/05/04 01:45:56;;;;;;;;;;;;;;;18.68;60.36;99814.50;2061496;28;21167;-41
2022/05/04 01:46:57;;;;;;;;;;;;;;;18.66;60.38;99816.53;2064169;28;19917;-42
2022/05/04 01:47:57;;;;;;;;;;;;;;;18.66;60.40;99822.00;2068037;28;19917;-43
2022/05/04 01:48:57;;;;;;;;;;;;;;;18.66;60.47;99813.81;2065388;28;19924;-41
2022/05/04 01:49:58;;;;;;;;;;;;;;;18.67;60.44;99814.66;2064217;28;19941;-41
2022/05/04 01:50:58;;;;;;;;;;;;;;;18.67;60.47;99817.38;2065798;28;20385;-41
2022/05/04 01:51:58;;;;;;;;;;;;;;;18.67;60.44;99822.84;2068878;28;19909;-41
2022/05/04 01:52:59;;;;;;;;;;;;;;;18.66;60.44;99816.53;2064622;28;19917;-41
2022/05/04 01:53:59;;;;;;;;;;;;;;;18.66;60.41;99827.44;2060359;28;19924;-41
2022/05/04 01:55:00;;;;;;;;;;;;;;;18.65;60.55;99828.47;2062353;28;19921;-42
2022/05/04 01:56:06;;;;;;;;;;;;;;;18.65;60.36;99820.28;2062259;28;20366;-42
2022/05/04 01:57:06;;;;;;;;;;;;;;;18.66;60.44;99826.59;2063210;28;20668;-47
2022/05/04 01:58:07;;;;;;;;;;;;;;;18.66;60.55;99827.44;2060311;28;19917;-42
2022/05/04 01:59:07;;;;;;;;;;;;;;;18.64;60.52;99827.63;2063683;28;19924;-43
2022/05/04 02:00:09;;;;;;;;;;;;;;;18.66;60.44;99832.91;2061186;28;20201;-42
2022/05/04 02:01:09;;;;;;;;;;;;;;;18.64;60.54;99819.44;2063054;28;19939;-44
2022/05/04 02:02:10;;;;;;;;;;;;;;;18.65;60.39;99825.75;2061347;28;19917;-42
2022/05/04 02:03:11;;;;;;;;;;;;;;;18.65;60.48;99820.28;2060481;28;19988;-42
2022/05/04 02:04:12;;;;;;;;;;;;;;;18.64;60.54;99824.00;2063650;28;20050;-42
2022/05/04 02:05:12;;;;;;;;;;;;;;;18.65;60.50;99825.75;2065976;28;20038;-43
2022/05/04 02:06:13;;;;;;;;;;;;;;;18.64;60.53;99829.47;2063985;28;19951;-42
2022/05/04 02:07:13;;;;;;;;;;;;;;;18.64;60.46;99824.00;2063593;28;19948;-43
2022/05/04 02:08:14;;;;;;;;;;;;;;;18.64;60.59;99826.75;2054383;28;20931;-42
2022/05/04 02:09:14;;;;;;;;;;;;;;;18.64;60.42;99832.19;2064296;28;19913;-41
2022/05/04 02:10:15;;;;;;;;;;;;;;;18.64;60.42;99834.94;2064309;28;19921;-42
2022/05/04 02:11:16;;;;;;;;;;;;;;;18.64;60.49;99829.47;2060794;28;19921;-42
2022/05/04 02:12:16;;;;;;;;;;;;;;;18.63;60.59;99828.63;2064344;28;20379;-42
2022/05/04 02:13:16;;;;;;;;;;;;;;;18.65;60.44;99825.75;2066244;28;19925;-42
2022/05/04 02:14:17;;;;;;;;;;;;;;;18.64;60.53;99819.44;2066510;28;20394;-42
2022/05/04 02:15:18;;;;;;;;;;;;;;;18.64;60.50;99819.44;2062885;28;19909;-42
2022/05/04 02:16:18;;;;;;;;;;;;;;;18.65;60.51;99831.22;2067611;28;19943;-43
2022/05/04 02:17:19;;;;;;;;;;;;;;;18.66;60.59;99826.59;2064213;28;20218;-41
2022/05/04 02:18:19;;;;;;;;;;;;;;;18.64;60.40;99830.34;2063022;28;19928;-41
2022/05/04 02:19:20;;;;;;;;;;;;;;;18.65;60.48;99825.75;2063238;28;20284;-43
2022/05/04 02:20:20;;;;;;;;;;;;;;;18.64;60.47;99829.47;2063800;28;19912;-42
2022/05/04 02:21:20;;;;;;;;;;;;;;;18.62;60.71;99826.91;2066302;28;19963;-41
2022/05/04 02:22:21;;;;;;;;;;;;;;;18.63;60.50;99827.75;2066334;28;19913;-41
2022/05/04 02:23:21;;;;;;;;;;;;;;;18.64;60.50;99834.94;2064485;28;19925;-41
2022/05/04 02:24:21;;;;;;;;;;;;;;;18.63;60.54;99828.63;2066357;28;19959;-41
2022/05/04 02:25:21;;;;;;;;;;;;;;;18.62;60.48;99828.78;2064914;28;20115;-42
2022/05/04 02:26:22;;;;;;;;;;;;;;;18.62;60.60;99821.47;2066701;28;19909;-42
2022/05/04 02:27:22;;;;;;;;;;;;;;;18.63;60.54;99833.22;2066886;28;19968;-42
2022/05/04 02:28:22;;;;;;;;;;;;;;;18.63;60.54;99833.22;2066335;28;19953;-42
2022/05/04 02:29:23;;;;;;;;;;;;;;;18.62;60.61;99835.09;2063468;28;19921;-42
2022/05/04 02:30:23;;;;;;;;;;;;;;;18.62;60.64;99828.78;2063442;28;19924;-43
2022/05/04 02:31:23;;;;;;;;;;;;;;;18.62;60.57;99826.06;2065083;28;19917;-43
2022/05/04 02:32:24;;;;;;;;;;;;;;;18.62;60.51;99831.53;2062906;28;20493;-42
2022/05/04 02:33:25;;;;;;;;;;;;;;;18.61;60.64;99830.63;2065556;28;19917;-42
2022/05/04 02:34:25;;;;;;;;;;;;;;;18.62;60.55;99826.06;2063093;28;19917;-42
2022/05/04 02:38:03;;;;;;;;;;;;;;;18.62;60.63;99823.34;2063675;28;19917;-41
2022/05/04 02:39:03;;;;;;;;;;;;;;;18.61;60.55;99824.31;2064090;28;20334;-41
2022/05/04 02:40:04;;;;;;;;;;;;;;;18.62;60.51;99815.16;2066056;28;20021;-42
2022/05/04 02:41:04;;;;;;;;;;;;;;;18.61;60.62;99824.31;2064304;28;19986;-42
2022/05/04 02:42:05;;;;;;;;;;;;;;;18.62;60.60;99820.59;2065084;28;20639;-42
2022/05/04 02:43:07;;;;;;;;;;;;;;;18.62;60.54;99823.34;2064788;28;20390;-42
2022/05/04 02:44:07;;;;;;;;;;;;;;;18.62;60.63;99815.16;2065901;28;20004;-41
2022/05/04 02:45:07;;;;;;;;;;;;;;;18.62;60.61;99815.16;2063431;28;20410;-42
2022/05/04 02:46:15;;;;;;;;;;;;;;;18.61;60.60;99822.44;2065476;28;19913;-41
2022/05/04 02:47:15;;;;;;;;;;;;;;;18.62;60.72;99810.53;2061313;28;19917;-41
2022/05/04 02:48:15;;;;;;;;;;;;;;;18.62;60.57;99809.69;2064302;28;19954;-42
2022/05/04 02:49:16;;;;;;;;;;;;;;;18.61;60.63;99811.53;2063600;28;20223;-42
2022/05/04 02:50:17;;;;;;;;;;;;;;;18.62;60.67;99816.00;2064349;28;19960;-42
2022/05/04 02:51:17;;;;;;;;;;;;;;;18.61;60.64;99807.94;2063242;28;20155;-41
2022/05/04 02:52:17;;;;;;;;;;;;;;;18.62;60.71;99815.16;2066226;28;19924;-41
2022/05/04 02:53:17;;;;;;;;;;;;;;;18.62;60.68;99815.16;2065579;28;20307;-41
2022/05/04 02:54:18;;;;;;;;;;;;;;;18.61;60.70;99818.88;2066307;28;19917;-41
2022/05/04 02:55:18;;;;;;;;;;;;;;;18.61;60.79;99810.69;2066044;28;19936;-41
2022/05/04 02:56:19;;;;;;;;;;;;;;;18.61;60.61;99813.41;2066772;28;19917;-41
2022/05/04 02:57:19;;;;;;;;;;;;;;;18.61;60.74;99813.41;2064060;28;19960;-41
2022/05/04 02:58:19;;;;;;;;;;;;;;;18.60;60.68;99818.00;2065482;28;19964;-41
2022/05/04 02:59:20;;;;;;;;;;;;;;;18.60;60.69;99807.09;2068700;28;19926;-41
2022/05/04 03:00:20;;;;;;;;;;;;;;;18.60;60.73;99817.16;2064233;28;20608;-42
2022/05/04 03:02:39;;;;;;;;;;;;;;;18.59;60.67;99816.31;2066888;28;19917;-42
2022/05/04 03:03:40;;;;;;;;;;;;;;;18.60;60.66;99817.16;2065534;28;20150;-41
2022/05/04 03:04:40;;;;;;;;;;;;;;;18.60;60.69;99811.72;2066999;28;19916;-41
2022/05/04 03:05:40;;;;;;;;;;;;;;;18.59;60.84;99815.44;2066172;28;19917;-42
2022/05/04 03:06:41;;;;;;;;;;;;;;;18.59;60.81;99810.84;2066476;28;19996;-42
2022/05/04 03:07:41;;;;;;;;;;;;;;;18.59;60.63;99810.84;2067854;28;19917;-41
2022/05/04 03:08:42;;;;;;;;;;;;;;;18.59;60.73;99810.84;2064743;28;19921;-43
2022/05/04 03:09:42;;;;;;;;;;;;;;;18.59;60.70;99810.84;2067741;28;19917;-41
2022/05/04 03:12:02;;;;;;;;;;;;;;;18.60;60.74;99811.72;2064293;28;20349;-42
2022/05/04 03:13:02;;;;;;;;;;;;;;;18.60;60.61;99806.25;2068364;28;19925;-42
2022/05/04 03:14:02;;;;;;;;;;;;;;;18.60;60.67;99806.25;2066960;28;20043;-42
2022/05/04 03:15:03;;;;;;;;;;;;;;;18.60;60.79;99806.25;2065678;28;20316;-42
2022/05/04 03:16:04;;;;;;;;;;;;;;;18.60;60.81;99806.25;2068920;28;19921;-42
2022/05/04 03:17:04;;;;;;;;;;;;;;;18.60;60.75;99800.78;2065049;28;19921;-42
2022/05/04 03:18:05;;;;;;;;;;;;;;;18.60;60.86;99806.25;2066863;28;20204;-42
2022/05/04 03:19:05;;;;;;;;;;;;;;;18.59;60.80;99810.84;2066613;28;20312;-42
2022/05/04 03:20:06;;;;;;;;;;;;;;;18.59;60.87;99804.50;2068344;28;19909;-42
2022/05/04 03:21:06;;;;;;;;;;;;;;;18.59;60.72;99807.25;2064265;28;20145;-42
2022/05/04 03:22:07;;;;;;;;;;;;;;;18.60;60.86;99817.16;2061746;28;20315;-43
2022/05/04 03:23:07;;;;;;;;;;;;;;;18.60;60.71;99806.25;2065928;28;19972;-43
2022/05/04 03:24:07;;;;;;;;;;;;;;;18.58;60.73;99808.25;2065884;28;19928;-42
2022/05/04 03:25:08;;;;;;;;;;;;;;;18.59;60.80;99809.97;2067150;28;19910;-41
2022/05/04 03:26:09;;;;;;;;;;;;;;;18.57;60.68;99807.41;2066116;28;19921;-41
2022/05/04 03:27:09;;;;;;;;;;;;;;;18.58;60.85;99814.56;2069219;28;19917;-42
2022/05/04 03:28:10;;;;;;;;;;;;;;;18.58;60.81;99816.44;2066924;28;19917;-42
2022/05/04 03:29:10;;;;;;;;;;;;;;;18.58;60.77;99803.66;2067321;28;19909;-42
2022/05/04 03:30:11;;;;;;;;;;;;;;;18.58;60.89;99808.25;2067411;28;20389;-42
2022/05/04 03:31:12;;;;;;;;;;;;;;;18.59;60.92;99815.44;2065313;28;19982;-42
2022/05/04 03:32:12;;;;;;;;;;;;;;;18.58;60.91;99816.44;2063383;28;19917;-41
2022/05/04 03:33:13;;;;;;;;;;;;;;;18.58;60.77;99816.44;2065414;28;19983;-41
2022/05/04 03:34:13;;;;;;;;;;;;;;;18.58;60.82;99822.75;2065481;28;19923;-41
2022/05/04 03:35:13;;;;;;;;;;;;;;;18.57;60.77;99810.13;2064192;28;20011;-41
2022/05/04 03:36:14;;;;;;;;;;;;;;;18.58;60.91;99816.44;2063249;28;19946;-43
2022/05/04 03:37:14;;;;;;;;;;;;;;;18.57;60.86;99812.00;2066385;28;19935;-42
2022/05/04 03:38:14;;;;;;;;;;;;;;;18.57;60.78;99818.31;2067239;28;19996;-41
2022/05/04 03:39:15;;;;;;;;;;;;;;;18.57;60.81;99814.72;2064656;28;19917;-42
2022/05/04 03:40:15;;;;;;;;;;;;;;;18.58;60.90;99819.19;2067645;28;19917;-42
2022/05/04 03:41:16;;;;;;;;;;;;;;;18.58;60.84;99808.25;2068551;28;19964;-42
2022/05/04 03:42:16;;;;;;;;;;;;;;;18.58;60.89;99813.72;2064358;28;20126;-42
2022/05/04 03:43:16;;;;;;;;;;;;;;;18.58;60.84;99813.72;2065900;28;20296;-43
2022/05/04 03:44:17;;;;;;;;;;;;;;;18.57;60.91;99814.72;2064118;28;19920;-42
2022/05/04 03:45:17;;;;;;;;;;;;;;;18.59;60.87;99815.44;2065133;28;20707;-42
2022/05/04 03:46:21;;;;;;;;;;;;;;;18.58;60.98;99813.72;2064505;28;20215;-43
2022/05/04 03:47:22;;;;;;;;;;;;;;;18.58;60.99;99816.44;2065973;28;20338;-42
2022/05/04 03:48:22;;;;;;;;;;;;;;;18.59;61.02;99820.88;2065232;28;20560;-42
2022/05/04 03:49:23;;;;;;;;;;;;;;;18.58;60.86;99814.56;2061876;28;20361;-42
2022/05/04 03:50:23;;;;;;;;;;;;;;;18.59;60.95;99820.88;2062859;28;20217;-43
2022/05/04 03:51:23;;;;;;;;;;;;;;;18.58;60.99;99821.91;2068162;28;20438;-42
2022/05/04 03:52:24;;;;;;;;;;;;;;;18.58;60.96;99813.72;2067252;28;20013;-43
2022/05/04 03:53:24;;;;;;;;;;;;;;;18.58;60.99;99824.66;2065987;28;19924;-42
2022/05/04 03:54:25;;;;;;;;;;;;;;;18.58;61.03;99824.66;2068966;28;19913;-44
2022/05/04 03:55:25;;;;;;;;;;;;;;;18.59;61.06;99831.81;2062802;28;19987;-42
2022/05/04 03:56:25;;;;;;;;;;;;;;;18.58;61.08;99835.56;2063998;28;20239;-43
2022/05/04 03:57:26;;;;;;;;;;;;;;;18.57;61.11;99833.81;2065529;28;19920;-42
2022/05/04 03:58:26;;;;;;;;;;;;;;;18.57;61.03;99834.72;2063636;28;19997;-42
2022/05/04 03:59:26;;;;;;;;;;;;;;;18.58;61.07;99838.28;2068196;28;19917;-41
2022/05/04 04:00:27;;;;;;;;;;;;;;;18.57;60.96;99834.72;2068167;28;20388;-42
2022/05/04 04:01:27;;;;;;;;;;;;;;;18.56;61.01;99832.13;2064935;28;19916;-41
2022/05/04 04:02:27;;;;;;;;;;;;;;;18.57;61.06;99833.81;2063939;28;19924;-41
2022/05/04 04:03:28;;;;;;;;;;;;;;;18.56;61.03;99838.44;2062317;28;19917;-41
2022/05/04 04:04:28;;;;;;;;;;;;;;;18.57;60.93;99833.81;2067050;28;19917;-41
2022/05/04 04:05:29;;;;;;;;;;;;;;;18.56;61.11;99838.44;2064859;28;20006;-42
2022/05/04 04:06:30;;;;;;;;;;;;;;;18.56;60.91;99832.13;2064027;28;19921;-41
2022/05/04 04:07:30;;;;;;;;;;;;;;;18.57;61.01;99839.28;2066047;28;20217;-41
2022/05/04 04:08:31;;;;;;;;;;;;;;;18.56;61.01;99840.31;2067604;28;19917;-42
2022/05/04 04:09:31;;;;;;;;;;;;;;;18.55;60.94;99834.00;2065171;28;19921;-41
2022/05/04 04:10:31;;;;;;;;;;;;;;;18.55;61.02;99835.88;2066721;28;19947;-42
2022/05/04 04:11:32;;;;;;;;;;;;;;;18.55;60.93;99833.16;2065000;28;19921;-42
2022/05/04 04:12:32;;;;;;;;;;;;;;;18.57;60.90;99839.28;2065823;28;19925;-41
2022/05/04 04:13:32;;;;;;;;;;;;;;;18.56;60.96;99837.59;2063080;28;19929;-42
2022/05/04 04:14:33;;;;;;;;;;;;;;;18.56;61.00;99832.97;2063229;28;20611;-41
2022/05/04 04:15:33;;;;;;;;;;;;;;;18.56;61.01;99838.44;2068802;28;19979;-44
2022/05/04 04:16:33;;;;;;;;;;;;;;;18.56;61.00;99837.59;2065711;28;19952;-42
2022/05/04 04:17:34;;;;;;;;;;;;;;;18.56;61.06;99840.31;2066480;28;20347;-42
2022/05/04 04:18:34;;;;;;;;;;;;;;;18.57;61.07;99850.19;2065584;28;19948;-42
2022/05/04 04:19:34;;;;;;;;;;;;;;;18.56;61.00;99843.03;2067351;28;19917;-41
2022/05/04 04:21:54;;;;;;;;;;;;;;;18.56;61.03;99832.97;2064530;28;20176;-41
2022/05/04 04:22:55;;;;;;;;;;;;;;;18.56;61.04;99832.97;2067198;28;20327;-42
2022/05/04 04:23:55;;;;;;;;;;;;;;;18.56;61.15;99832.97;2064924;28;20676;-42
2022/05/04 04:24:56;;;;;;;;;;;;;;;18.56;61.13;99840.31;2064377;28;19917;-42
2022/05/04 04:25:56;;;;;;;;;;;;;;;18.55;61.02;99835.88;2064431;28;20010;-43
2022/05/04 04:26:56;;;;;;;;;;;;;;;18.56;61.13;99843.03;2066435;28;19921;-41
2022/05/04 04:27:57;;;;;;;;;;;;;;;18.55;60.99;99835.88;2065692;28;19924;-41
2022/05/04 04:28:58;;;;;;;;;;;;;;;18.55;61.08;99847.66;2065225;28;19935;-43
2022/05/04 04:29:59;;;;;;;;;;;;;;;18.54;61.05;99842.31;2066643;28;19921;-41
2022/05/04 04:31:00;;;;;;;;;;;;;;;18.55;61.00;99835.88;2067092;28;19933;-41
2022/05/04 04:32:00;;;;;;;;;;;;;;;18.53;60.95;99844.19;2066287;28;19921;-42
2022/05/04 04:33:00;;;;;;;;;;;;;;;18.55;61.12;99846.78;2066312;28;19921;-42
2022/05/04 04:34:04;;;;;;;;;;;;;;;18.54;61.11;99850.50;2064682;28;20277;-42
2022/05/04 04:35:04;;;;;;;;;;;;;;;18.54;61.16;99845.06;2065935;28;19921;-41
2022/05/04 04:36:05;;;;;;;;;;;;;;;18.53;61.14;99844.19;2065684;28;19988;-41
2022/05/04 04:37:05;;;;;;;;;;;;;;;18.53;61.13;99844.19;2064218;28;19917;-42
2022/05/04 04:38:07;;;;;;;;;;;;;;;18.54;61.06;99836.88;2063995;28;19933;-41
2022/05/04 04:39:08;;;;;;;;;;;;;;;18.53;61.09;99846.94;2070180;28;20499;-41
2022/05/04 04:40:08;;;;;;;;;;;;;;;18.53;61.07;99840.63;2065975;28;20155;-41
2022/05/04 04:41:08;;;;;;;;;;;;;;;18.53;61.09;99837.91;2064962;28;19921;-41
2022/05/04 04:42:12;;;;;;;;;;;;;;;18.54;61.01;99845.06;2064704;28;19975;-41
2022/05/04 04:43:14;;;;;;;;;;;;;;;18.53;61.20;99826.97;2063763;28;20346;-43
2022/05/04 04:44:14;;;;;;;;;;;;;;;18.53;61.00;99844.19;2063750;28;20300;-43
2022/05/04 04:45:15;;;;;;;;;;;;;;;18.53;61.12;99832.44;2064859;28;19917;-42
2022/05/04 04:46:15;;;;;;;;;;;;;;;18.54;61.12;99845.06;2064167;28;19921;-42
2022/05/04 04:47:15;;;;;;;;;;;;;;;18.54;61.18;99834.13;2067179;28;19923;-42
2022/05/04 04:48:16;;;;;;;;;;;;;;;18.54;61.10;99834.13;2064448;28;20207;-41
2022/05/04 04:49:16;;;;;;;;;;;;;;;18.54;61.06;99839.59;2067625;28;19940;-41
2022/05/04 04:50:16;;;;;;;;;;;;;;;18.54;61.19;99839.59;2064682;28;20287;-41
2022/05/04 04:51:17;;;;;;;;;;;;;;;18.53;61.25;99846.94;2064992;28;19949;-42
2022/05/04 04:52:17;;;;;;;;;;;;;;;18.52;61.26;99839.78;2066868;28;19975;-41
2022/05/04 04:53:18;;;;;;;;;;;;;;;18.53;61.26;99833.28;2065207;28;20379;-41
2022/05/04 04:54:18;;;;;;;;;;;;;;;18.53;61.17;99844.19;2067806;28;19983;-42
2022/05/04 04:55:18;;;;;;;;;;;;;;;18.54;61.18;99842.31;2064748;28;20338;-41
2022/05/04 04:56:18;;;;;;;;;;;;;;;18.54;61.29;99847.78;2068791;28;19963;-42
2022/05/04 04:57:19;;;;;;;;;;;;;;;18.53;61.22;99848.81;2061127;28;19917;-42
2022/05/04 04:58:19;;;;;;;;;;;;;;;18.53;61.23;99844.19;2065381;28;19917;-42
2022/05/04 04:59:20;;;;;;;;;;;;;;;18.52;61.31;99842.50;2063119;28;19917;-42
2022/05/04 05:00:21;;;;;;;;;;;;;;;18.53;61.25;99846.09;2063044;28;20307;-42
2022/05/04 05:01:21;;;;;;;;;;;;;;;18.52;61.32;99847.06;2067519;28;19920;-43
2022/05/04 05:02:21;;;;;;;;;;;;;;;18.53;61.08;99843.34;2065389;28;20008;-43
2022/05/04 05:03:22;;;;;;;;;;;;;;;18.51;61.32;99850.81;2065685;28;20360;-42
2022/05/04 05:04:22;;;;;;;;;;;;;;;18.51;61.14;99851.69;2062273;28;19921;-43
2022/05/04 05:05:23;;;;;;;;;;;;;;;18.51;61.16;99845.38;2066386;28;20100;-43
2022/05/04 05:06:25;;;;;;;;;;;;;;;18.51;61.19;99850.81;2060433;28;19917;-42
2022/05/04 05:07:25;;;;;;;;;;;;;;;18.50;61.28;99857.31;2067075;28;20368;-42
2022/05/04 05:08:25;;;;;;;;;;;;;;;18.50;61.22;99849.97;2065315;28;20142;-43
2022/05/04 05:09:25;;;;;;;;;;;;;;;18.49;61.23;99853.69;2065002;28;19960;-43
2022/05/04 05:10:26;;;;;;;;;;;;;;;18.50;61.17;99846.41;2062004;28;19928;-44
2022/05/04 05:11:27;;;;;;;;;;;;;;;18.50;61.16;99851.84;2063124;28;19909;-43
2022/05/04 05:12:27;;;;;;;;;;;;;;;18.50;61.13;99854.59;2065426;28;20426;-43
2022/05/04 05:13:27;;;;;;;;;;;;;;;18.50;61.15;99855.44;2063569;28;19976;-42
2022/05/04 05:17:05;;;;;;;;;;;;;;;18.50;61.17;99857.31;2066220;28;20335;-44
2022/05/04 05:18:06;;;;;;;;;;;;;;;18.51;61.16;99864.47;2063561;28;19913;-43
2022/05/04 05:19:06;;;;;;;;;;;;;;;18.51;61.26;99861.75;2065974;28;19924;-43
2022/05/04 05:20:06;;;;;;;;;;;;;;;18.50;61.23;99858.16;2065545;28;19917;-43
2022/05/04 05:21:07;;;;;;;;;;;;;;;18.51;61.14;99861.75;2065294;28;20062;-42
2022/05/04 05:22:07;;;;;;;;;;;;;;;18.50;61.14;99865.50;2062560;28;20031;-42
2022/05/04 05:23:08;;;;;;;;;;;;;;;18.51;61.27;99868.06;2063348;28;19924;-42
2022/05/04 05:24:08;;;;;;;;;;;;;;;18.51;61.19;99867.19;2063707;28;19921;-42
2022/05/04 05:25:09;;;;;;;;;;;;;;;18.51;61.29;99872.66;2066587;28;20652;-42
2022/05/04 05:26:09;;;;;;;;;;;;;;;18.50;61.27;99870.97;2064792;28;19928;-42
2022/05/04 05:27:09;;;;;;;;;;;;;;;18.51;61.35;99880.84;2062201;28;19925;-42